Savannah, GA

08:53 PM EST del 27 Febbraio 2015 (GMT -0500)
Savannah International | Change Station
CLOSE
Current Station
Aeroporto
Location: Savannah,
Altitudine: 49 ft
Stazioni meteo nelle vicinanze

Alt. 49 ft 32.13 °N, 81.20 °W | Updated 1 hour ago

Mostly Cloudy
Molto nuvoloso
44 °F
Sembra 40 °F
N
7
Vento Variabile Vento da Est

Oggi
Massima -- | Minima -- °F
--% Possibilità di precip.
Ieri
Massima -- | Minima -- °F
Precip. -- in
6:54 AM 6:20 PM
Gobba a ponente, 73% visible
Pressione 30.40 in
Visibilità 10.0 miglia
Nuvole Nubi sparse 18000 ft
Molto nuvoloso 25000 ft
Raffreddamento del vento 40 °F
Punto di rugiada 35 °F
Umidità 71%
Piovosità 0.00 in
Spessore del manto nevoso Non disponibile.
Raggi UV 0 fuori da 12
Polline 7.50 fuori da 12
Qualità dell'aria Non disponibile.
Flu Activity Non disponibile.
METAR KSAV 280053Z 08006KT 10SM SCT180 BKN250 07/02 A3040 RMK AO2 SLP295 T00670017

More Conditions Fewer Conditions

Pressione 30.40 in
Visibilità 10.0 miglia
Nuvole Nubi sparse 18000 ft
Molto nuvoloso 25000 ft
Raffreddamento del vento 40 °F
Punto di rugiada 35 °F
Umidità 71%
Piovosità 0.00 in
Spessore del manto nevoso Non disponibile.
Raggi UV 0 fuori da 12
Polline 7.50 fuori da 12
Qualità dell'aria Non disponibile.
Flu Activity Non disponibile.
METAR KSAV 280053Z 08006KT 10SM SCT180 BKN250 07/02 A3040 RMK AO2 SLP295 T00670017

More Conditions Fewer Conditions

10-Day Weather Forecast

Almanac

Astronomia

Feb. 27, 2015 Alba Tramonto
Ora attuale
Crepuscolo civile
Crepuscolo nautico
Crepuscolo astronomico
Luna
Estensione della luce visibile
Lunghezza del giorno
Tomorrow will be .
, % of the Moon is Illuminated

Gli estremi di oggi

State Highs State Lows

Community

WunderPhotos

Upload Photos

1,800,924 foto caricate!

WunderBlogs® & News

Nearby

Qualità dell'aria

  Qualità dell'aria Indice AQ Inquinante
Not available.

Profondità neve

Stazione Profondità Altitudine

Attività sismica

Città  Distanza Mag. Data & Ora
Minimo Magnitudo Mostrato è 2.5.

Temperature delle acque costiere

Località Temperatura

Stazioni meteo nelle vicinanze